Francisco A. Berra, Argentina
Current Conditions -  °F | °C
As of 9:00 AM on Saturday 20 Dec 2014 (Local Time) from SAEZ Reporting Station
Thunderstorm Thunderstorm  
Wind Chill: 66°   Ceiling: 2000
Heat Index: 66°   Visibility: 5mi
Dew Point: 64°   Wind: 9mph
Humidity: 94%   Direction: 110°ESE
Pressure: 29.59"   Gusts: NA
Location:  35.41°S, 58.82°W
Report Text: SAEZ 201200Z 11008KT 8000 -TSRA BKN020 FEW045CB OVC070 19/18 Q1002
Loading
Personal Weather Stations






























Interactive Weather Map New forecast layout! Learn more

10-Day Weather Forecast

Advertisements
Track Severe Weather on mobile